Time;durP1;ratioP1;P1;durP2;ratioP2;P2;SDS_P1;SDS_P2;PMS_P1;PMS_P2;Temp;Humidity;BMP_temperature;BMP_pressure;BME280_temperature;BME280_humidity;BME280_pressure;Samples;Min_cycle;Max_cycle;Signal;HPM_P1;HPM_P2
2023/11/03 00:01:51;;;;;;;24.37;21.97;;;10.60;99.90;;;;;;4872411;29;20191;-43
2023/11/03 00:04:17;;;;;;;25.03;22.77;;;10.50;99.90;;;;;;4883004;29;20518;-40
2023/11/03 00:06:43;;;;;;;24.50;22.13;;;10.40;99.90;;;;;;4872070;29;20854;-41
2023/11/03 00:09:16;;;;;;;26.23;23.53;;;10.40;99.90;;;;;;4874963;29;20256;-41
2023/11/03 00:11:43;;;;;;;27.63;24.73;;;10.30;99.90;;;;;;4873989;29;20488;-42
2023/11/03 00:14:09;;;;;;;27.30;22.70;;;10.20;99.90;;;;;;4874693;29;20448;-40
2023/11/03 00:16:35;;;;;;;24.87;22.57;;;10.20;99.90;;;;;;4869523;29;20428;-40
2023/11/03 00:19:04;;;;;;;26.37;23.83;;;10.10;99.90;;;;;;4877611;29;20258;-41
2023/11/03 00:21:36;;;;;;;24.80;22.57;;;10.20;99.90;;;;;;4876897;29;20481;-40
2023/11/03 00:24:01;;;;;;;25.77;23.43;;;10.10;99.90;;;;;;4879230;29;21176;-40
2023/11/03 00:26:27;;;;;;;25.80;23.40;;;10.20;99.90;;;;;;4877641;29;20515;-42
2023/11/03 00:28:53;;;;;;;26.00;23.50;;;10.10;99.90;;;;;;4877836;29;20271;-43
2023/11/03 00:31:19;;;;;;;26.00;23.70;;;10.10;99.90;;;;;;4858245;29;20303;-43
2023/11/03 00:33:45;;;;;;;25.43;23.23;;;10.10;99.90;;;;;;4878079;29;20527;-40
2023/11/03 00:36:14;;;;;;;26.30;23.83;;;10.10;99.90;;;;;;4877639;29;20180;-40
2023/11/03 00:38:46;;;;;;;24.57;22.30;;;10.10;99.90;;;;;;4860184;29;20187;-40
2023/11/03 00:41:14;;;;;;;26.30;23.90;;;10.20;99.90;;;;;;4868242;29;20432;-40
2023/11/03 00:43:41;;;;;;;25.60;23.40;;;10.20;99.90;;;;;;4877922;29;20560;-41
2023/11/03 00:46:07;;;;;;;25.90;23.70;;;10.20;99.90;;;;;;4880445;29;20448;-41
2023/11/03 00:48:33;;;;;;;24.17;22.07;;;10.20;99.90;;;;;;4877382;29;20428;-40
2023/11/03 00:50:59;;;;;;;24.60;22.33;;;10.20;99.90;;;;;;4879955;29;20475;-42
2023/11/03 00:53:24;;;;;;;24.30;22.20;;;10.10;99.90;;;;;;4876758;29;20667;-40
2023/11/03 00:55:50;;;;;;;24.40;21.93;;;10.10;99.90;;;;;;4855925;29;20192;-39
2023/11/03 00:58:15;;;;;;;24.37;22.20;;;10.10;99.90;;;;;;4876689;29;20765;-46
2023/11/03 01:00:41;;;;;;;26.63;24.03;;;10.10;99.90;;;;;;4880742;29;20184;-39
2023/11/03 01:03:08;;;;;;;24.53;22.17;;;10.10;99.90;;;;;;4877146;29;20188;-40
2023/11/03 01:05:33;;;;;;;26.63;24.17;;;10.10;99.90;;;;;;4879706;29;20190;-40
2023/11/03 01:08:00;;;;;;;25.37;22.97;;;10.10;99.90;;;;;;4876895;29;20446;-41
2023/11/03 01:10:28;;;;;;;24.40;22.00;;;10.10;99.90;;;;;;4879201;29;20200;-41
2023/11/03 01:12:54;;;;;;;24.43;22.13;;;10.10;99.90;;;;;;4873980;29;20449;-40
2023/11/03 01:15:20;;;;;;;24.20;22.00;;;10.10;99.90;;;;;;4870578;29;20498;-42
2023/11/03 01:17:50;;;;;;;24.93;22.73;;;10.10;99.90;;;;;;4876966;29;20432;-41
2023/11/03 01:20:19;;;;;;;24.83;22.60;;;10.10;99.90;;;;;;4876912;29;20428;-48
2023/11/03 01:22:48;;;;;;;25.17;22.87;;;10.10;99.90;;;;;;4870774;29;20459;-40
2023/11/03 01:25:15;;;;;;;24.27;21.97;;;10.10;99.90;;;;;;4875357;29;20886;-40
2023/11/03 01:27:44;;;;;;;23.73;21.43;;;10.10;99.90;;;;;;4876902;29;20496;-40
2023/11/03 01:30:13;;;;;;;24.13;21.93;;;10.10;99.90;;;;;;4872070;29;20468;-41
2023/11/03 01:32:38;;;;;;;23.17;21.13;;;10.10;99.90;;;;;;4876739;29;20460;-42
2023/11/03 01:35:06;;;;;;;23.87;21.77;;;10.10;99.90;;;;;;4881868;29;20582;-40
2023/11/03 01:37:33;;;;;;;24.33;22.10;;;10.10;99.90;;;;;;4878982;29;20191;-41
2023/11/03 01:39:58;;;;;;;23.37;21.27;;;10.10;99.90;;;;;;4878841;29;20792;-41
2023/11/03 01:42:25;;;;;;;25.20;22.87;;;10.10;99.90;;;;;;4876249;29;20440;-40
2023/11/03 01:44:51;;;;;;;23.60;21.43;;;10.00;99.90;;;;;;4876934;29;20296;-40
2023/11/03 01:47:17;;;;;;;23.60;21.30;;;10.00;99.90;;;;;;4879258;29;20877;-40
2023/11/03 01:49:44;;;;;;;23.87;21.67;;;10.00;99.90;;;;;;4871531;29;20448;-43
2023/11/03 01:52:14;;;;;;;23.50;21.20;;;10.00;99.90;;;;;;4878355;29;20942;-43
2023/11/03 01:54:41;;;;;;;23.20;21.10;;;10.00;99.90;;;;;;4876132;29;20508;-43
2023/11/03 01:57:07;;;;;;;23.77;21.50;;;10.00;99.90;;;;;;4877424;29;20444;-40
2023/11/03 01:59:33;;;;;;;22.80;20.80;;;10.00;99.90;;;;;;4874468;29;20599;-43
2023/11/03 02:01:59;;;;;;;24.07;21.77;;;9.90;99.90;;;;;;4880551;29;20519;-40
2023/11/03 02:04:25;;;;;;;23.03;20.83;;;9.90;99.90;;;;;;4875378;29;20578;-41
2023/11/03 02:06:51;;;;;;;22.90;20.80;;;9.90;99.90;;;;;;4879773;29;20454;-43
2023/11/03 02:09:16;;;;;;;23.50;21.13;;;9.90;99.90;;;;;;4879435;29;20188;-40
2023/11/03 02:11:43;;;;;;;22.80;20.60;;;9.90;99.90;;;;;;4881489;29;20258;-41
2023/11/03 02:14:10;;;;;;;21.23;19.33;;;9.90;99.90;;;;;;4875080;29;20331;-40
2023/11/03 02:16:36;;;;;;;22.40;20.50;;;9.90;99.90;;;;;;4878089;29;20859;-42
2023/11/03 02:19:05;;;;;;;22.90;20.83;;;9.80;99.90;;;;;;4872290;29;20496;-39
2023/11/03 02:21:42;;;;;;;22.77;20.70;;;9.80;99.90;;;;;;4879176;29;20459;-43
2023/11/03 02:24:08;;;;;;;22.10;20.13;;;9.70;99.90;;;;;;4875847;29;20834;-40
2023/11/03 02:26:35;;;;;;;23.07;20.83;;;9.70;99.90;;;;;;4865583;29;20511;-41
2023/11/03 02:29:03;;;;;;;22.63;20.47;;;9.70;99.90;;;;;;4874576;29;20440;-40
2023/11/03 02:31:32;;;;;;;22.17;20.17;;;9.70;99.90;;;;;;4878206;29;20472;-39
2023/11/03 02:33:59;;;;;;;21.40;19.47;;;9.70;99.90;;;;;;4870242;29;20928;-41
2023/11/03 02:36:25;;;;;;;21.93;19.93;;;9.70;99.90;;;;;;4878225;29;20432;-44
2023/11/03 02:38:52;;;;;;;20.53;18.73;;;9.70;99.90;;;;;;4874492;29;20436;-40
2023/11/03 02:41:18;;;;;;;21.37;19.30;;;9.70;99.90;;;;;;4872457;29;20449;-44
2023/11/03 02:43:44;;;;;;;21.90;20.00;;;9.70;99.90;;;;;;4875404;29;21104;-40
2023/11/03 02:46:10;;;;;;;20.67;19.03;;;9.70;99.90;;;;;;4873891;29;20436;-41
2023/11/03 02:48:35;;;;;;;20.67;18.70;;;9.70;99.90;;;;;;4875082;29;20188;-42
2023/11/03 02:51:03;;;;;;;21.90;19.90;;;9.70;99.90;;;;;;4858348;29;20223;-41
2023/11/03 02:53:29;;;;;;;22.17;20.20;;;9.70;99.90;;;;;;4877155;29;20263;-39
2023/11/03 02:55:55;;;;;;;21.97;19.90;;;9.70;99.90;;;;;;4871157;29;20428;-41
2023/11/03 02:58:21;;;;;;;21.07;19.27;;;9.70;99.90;;;;;;4880770;29;20479;-40
2023/11/03 03:00:47;;;;;;;20.67;18.90;;;9.70;99.90;;;;;;4875302;29;20428;-41
2023/11/03 03:03:13;;;;;;;21.67;19.77;;;9.70;99.90;;;;;;4875361;29;20421;-42
2023/11/03 03:05:38;;;;;;;20.37;18.50;;;9.70;99.90;;;;;;4875477;29;20188;-41
2023/11/03 03:08:04;;;;;;;21.07;18.90;;;9.70;99.90;;;;;;4881368;29;20247;-40
2023/11/03 03:10:31;;;;;;;20.63;18.97;;;9.70;99.90;;;;;;4874507;29;20651;-42
2023/11/03 03:12:57;;;;;;;21.90;19.90;;;9.70;99.90;;;;;;4878880;29;20516;-42
2023/11/03 03:15:23;;;;;;;21.33;19.40;;;9.70;99.90;;;;;;4871978;29;20524;-42
2023/11/03 03:17:49;;;;;;;20.87;18.97;;;9.70;99.90;;;;;;4876921;29;20192;-39
2023/11/03 03:20:14;;;;;;;21.03;19.33;;;9.70;99.90;;;;;;4872668;29;20436;-42
2023/11/03 03:22:40;;;;;;;20.80;19.10;;;9.70;99.90;;;;;;4875351;29;20503;-40
2023/11/03 03:25:07;;;;;;;19.00;17.40;;;9.70;99.90;;;;;;4874525;29;20887;-40
2023/11/03 03:27:33;;;;;;;20.50;18.80;;;9.70;99.90;;;;;;4875015;29;20184;-40
2023/11/03 03:29:59;;;;;;;20.23;18.43;;;9.70;99.90;;;;;;4875048;29;20610;-42
2023/11/03 03:32:24;;;;;;;20.47;18.63;;;9.70;99.90;;;;;;4875430;29;20464;-41
2023/11/03 03:34:50;;;;;;;20.00;18.17;;;9.70;99.90;;;;;;4883057;29;20270;-41
2023/11/03 03:37:16;;;;;;;20.07;18.30;;;9.60;99.90;;;;;;4876289;29;20999;-40
2023/11/03 03:39:41;;;;;;;20.00;18.20;;;9.60;99.90;;;;;;4875113;29;20180;-41
2023/11/03 03:42:07;;;;;;;18.73;17.20;;;9.60;99.90;;;;;;4875093;29;20263;-40
2023/11/03 03:44:33;;;;;;;19.10;17.70;;;9.60;99.90;;;;;;4873520;29;20244;-44
2023/11/03 03:46:59;;;;;;;18.37;16.77;;;9.60;99.90;;;;;;4872825;29;20521;-42
2023/11/03 03:49:25;;;;;;;18.80;17.20;;;9.60;99.90;;;;;;4876502;29;20199;-40
2023/11/03 03:51:50;;;;;;;19.37;17.80;;;9.60;99.90;;;;;;4873734;29;20998;-40
2023/11/03 03:54:16;;;;;;;18.97;17.47;;;9.50;99.90;;;;;;4880652;29;20657;-43
2023/11/03 03:56:42;;;;;;;19.30;17.70;;;9.50;99.90;;;;;;4877221;29;20179;-46
2023/11/03 03:59:08;;;;;;;19.07;17.40;;;9.60;99.90;;;;;;4874822;29;20643;-41
2023/11/03 04:01:33;;;;;;;19.40;17.73;;;9.60;99.90;;;;;;4877655;29;20435;-41
2023/11/03 04:03:59;;;;;;;19.77;18.03;;;9.50;99.90;;;;;;4877467;29;20187;-40
2023/11/03 04:06:25;;;;;;;18.67;17.07;;;9.50;99.90;;;;;;4877337;29;20251;-44
2023/11/03 04:08:50;;;;;;;18.77;17.27;;;9.50;99.90;;;;;;4876960;29;20196;-41
2023/11/03 04:11:16;;;;;;;18.70;17.30;;;9.40;99.90;;;;;;4875584;29;20263;-47
2023/11/03 04:13:41;;;;;;;19.07;17.40;;;9.40;99.90;;;;;;4878535;29;20188;-43
2023/11/03 04:16:08;;;;;;;19.30;17.60;;;9.40;99.90;;;;;;4878276;29;20519;-40
2023/11/03 04:18:34;;;;;;;18.83;17.00;;;9.40;99.90;;;;;;4877748;29;20188;-42
2023/11/03 04:21:00;;;;;;;19.17;17.47;;;9.50;99.90;;;;;;4876059;29;20775;-41
2023/11/03 04:23:25;;;;;;;19.07;17.30;;;9.40;99.90;;;;;;4885985;29;20427;-41
2023/11/03 04:25:53;;;;;;;18.87;17.27;;;9.40;99.90;;;;;;4881437;29;20196;-43
2023/11/03 04:28:19;;;;;;;18.10;16.53;;;9.40;99.90;;;;;;4854733;29;20632;-41
2023/11/03 04:30:45;;;;;;;18.13;16.47;;;9.40;99.90;;;;;;4874669;29;20472;-41
2023/11/03 04:33:12;;;;;;;19.00;17.40;;;9.40;99.90;;;;;;4882844;29;20421;-44
2023/11/03 04:35:38;;;;;;;19.67;17.67;;;9.30;99.90;;;;;;4879504;29;20443;-40
2023/11/03 04:38:03;;;;;;;19.40;17.80;;;9.30;99.90;;;;;;4878071;29;20466;-41
2023/11/03 04:40:29;;;;;;;19.07;17.30;;;9.30;99.90;;;;;;4877841;29;20428;-40
2023/11/03 04:42:54;;;;;;;18.50;16.80;;;9.20;99.90;;;;;;4862418;29;20191;-42
2023/11/03 04:45:21;;;;;;;18.43;17.00;;;9.20;99.90;;;;;;4876249;29;20258;-41
2023/11/03 04:47:47;;;;;;;19.37;17.67;;;9.20;99.90;;;;;;4877568;29;20218;-43
2023/11/03 04:50:12;;;;;;;19.17;17.57;;;9.20;99.90;;;;;;4876987;29;20444;-42
2023/11/03 04:52:38;;;;;;;19.10;17.50;;;9.20;99.90;;;;;;4876130;29;20203;-40
2023/11/03 04:55:06;;;;;;;20.30;18.47;;;9.20;99.90;;;;;;4884336;29;20595;-41
2023/11/03 04:57:32;;;;;;;19.93;18.27;;;9.10;99.90;;;;;;4877100;29;20179;-40
2023/11/03 05:00:01;;;;;;;20.47;18.57;;;9.10;99.90;;;;;;4883340;29;20440;-43
2023/11/03 05:02:27;;;;;;;19.53;18.00;;;9.10;99.90;;;;;;4869712;29;20445;-42
2023/11/03 05:04:54;;;;;;;19.93;18.23;;;9.10;99.90;;;;;;4882335;29;20496;-42
2023/11/03 05:07:20;;;;;;;20.37;18.40;;;9.10;99.90;;;;;;4875012;29;20534;-40
2023/11/03 05:09:46;;;;;;;19.10;17.50;;;9.10;99.90;;;;;;4849615;29;20524;-41
2023/11/03 05:12:12;;;;;;;20.30;18.50;;;9.10;99.90;;;;;;4876561;29;20862;-41
2023/11/03 05:14:38;;;;;;;18.70;17.13;;;9.10;99.90;;;;;;4861758;29;20284;-43
2023/11/03 05:17:05;;;;;;;19.97;18.07;;;9.10;99.90;;;;;;4855405;29;20447;-40
2023/11/03 05:19:30;;;;;;;21.07;19.07;;;9.10;99.90;;;;;;4856125;29;20184;-39
2023/11/03 05:21:56;;;;;;;19.40;17.80;;;9.10;99.90;;;;;;4850766;29;20429;-40
2023/11/03 05:24:21;;;;;;;19.63;18.13;;;9.10;99.90;;;;;;4854660;29;20977;-41
2023/11/03 05:26:47;;;;;;;20.73;18.83;;;9.10;99.90;;;;;;4854778;29;20236;-40
2023/11/03 05:29:14;;;;;;;19.87;18.13;;;9.00;99.90;;;;;;4842372;29;20269;-42
2023/11/03 05:31:39;;;;;;;18.87;17.37;;;9.00;99.90;;;;;;4850634;29;20211;-43
2023/11/03 05:34:05;;;;;;;19.50;17.77;;;9.00;99.90;;;;;;4851314;29;20425;-43
2023/11/03 05:36:31;;;;;;;19.43;17.90;;;9.00;99.90;;;;;;4850744;29;20445;-40
2023/11/03 05:38:57;;;;;;;19.50;17.93;;;8.90;99.90;;;;;;4854126;29;20180;-42
2023/11/03 05:41:24;;;;;;;18.67;17.27;;;9.00;99.90;;;;;;4840239;29;20448;-42
2023/11/03 05:43:50;;;;;;;20.97;19.10;;;9.00;99.90;;;;;;4854454;29;20231;-47
2023/11/03 05:46:17;;;;;;;22.77;19.13;;;9.00;99.90;;;;;;4850247;29;20417;-43
2023/11/03 05:48:42;;;;;;;22.07;20.07;;;9.00;99.90;;;;;;4861001;29;20448;-41
2023/11/03 05:51:08;;;;;;;21.00;19.10;;;9.00;99.90;;;;;;4851538;29;20557;-40
2023/11/03 05:53:34;;;;;;;19.97;18.20;;;9.00;99.90;;;;;;4851066;29;20817;-41
2023/11/03 05:56:00;;;;;;;21.00;19.13;;;9.00;99.90;;;;;;4852979;29;20188;-40
2023/11/03 05:58:26;;;;;;;21.20;19.30;;;8.90;99.90;;;;;;4850559;29;20188;-41
2023/11/03 06:00:51;;;;;;;21.03;19.17;;;9.00;99.90;;;;;;4849694;29;20827;-41
2023/11/03 06:03:17;;;;;;;19.93;17.93;;;9.00;99.90;;;;;;4857579;29;20199;-38
2023/11/03 06:05:43;;;;;;;20.10;18.20;;;9.00;99.90;;;;;;4851535;29;20222;-44
2023/11/03 06:08:09;;;;;;;21.53;19.37;;;9.00;99.90;;;;;;4853238;29;20456;-48
2023/11/03 06:10:34;;;;;;;20.07;18.10;;;9.10;99.90;;;;;;4842964;29;20321;-42
2023/11/03 06:13:00;;;;;;;18.43;16.83;;;9.00;99.90;;;;;;4850017;29;20227;-40
2023/11/03 06:15:26;;;;;;;19.47;17.73;;;9.10;99.90;;;;;;4849561;29;20486;-43
2023/11/03 06:17:51;;;;;;;19.33;17.67;;;9.10;99.90;;;;;;4860238;29;20275;-43
2023/11/03 06:20:17;;;;;;;18.97;17.17;;;9.00;99.90;;;;;;4856504;29;20203;-40
2023/11/03 06:22:43;;;;;;;19.83;18.23;;;9.10;99.90;;;;;;4849304;29;20623;-40
2023/11/03 06:25:08;;;;;;;19.10;17.47;;;9.10;99.90;;;;;;4849403;29;20195;-40
2023/11/03 06:27:34;;;;;;;18.30;16.80;;;9.00;99.90;;;;;;4849801;29;20217;-41
2023/11/03 06:30:00;;;;;;;18.83;17.20;;;9.00;99.90;;;;;;4833557;29;21036;-43
2023/11/03 06:32:26;;;;;;;20.63;18.63;;;9.10;99.90;;;;;;4857069;29;20472;-42
2023/11/03 06:34:51;;;;;;;19.10;17.60;;;9.10;99.90;;;;;;4850249;29;20180;-40
2023/11/03 06:37:17;;;;;;;20.13;18.27;;;9.00;99.90;;;;;;4849806;29;20189;-40
2023/11/03 06:39:43;;;;;;;19.23;17.63;;;9.00;99.90;;;;;;4851655;29;20223;-39
2023/11/03 06:42:09;;;;;;;19.80;18.00;;;9.00;99.90;;;;;;4851768;29;20220;-39
2023/11/03 06:44:36;;;;;;;20.83;18.63;;;9.10;99.90;;;;;;4849656;29;20871;-39
2023/11/03 06:47:02;;;;;;;20.30;18.30;;;9.10;99.90;;;;;;4849699;29;20908;-40
2023/11/03 06:49:28;;;;;;;22.50;19.60;;;9.00;99.90;;;;;;4855077;29;20425;-39
2023/11/03 06:51:54;;;;;;;22.00;20.00;;;9.00;99.90;;;;;;4852489;29;20880;-40
2023/11/03 06:54:19;;;;;;;20.20;18.50;;;9.00;99.90;;;;;;4850872;29;20180;-39
2023/11/03 06:56:45;;;;;;;20.50;18.60;;;9.00;99.90;;;;;;4851285;29;20192;-40
2023/11/03 06:59:10;;;;;;;21.90;19.70;;;9.10;99.90;;;;;;4852197;29;20184;-40
2023/11/03 07:01:36;;;;;;;21.23;19.43;;;9.10;99.90;;;;;;4849158;29;20196;-40
2023/11/03 07:04:04;;;;;;;21.03;19.20;;;9.10;99.90;;;;;;4836691;29;20184;-39
2023/11/03 07:06:30;;;;;;;22.60;20.30;;;9.10;99.90;;;;;;4851548;29;21000;-40
2023/11/03 07:08:55;;;;;;;21.47;19.53;;;9.10;99.90;;;;;;4850601;29;20413;-40
2023/11/03 07:11:21;;;;;;;21.73;19.00;;;9.10;99.90;;;;;;4850088;29;21678;-42
2023/11/03 07:13:47;;;;;;;20.83;18.93;;;9.20;99.90;;;;;;4849579;29;20938;-41
2023/11/03 07:16:13;;;;;;;22.10;19.90;;;9.20;99.90;;;;;;4849675;29;20418;-41
2023/11/03 07:18:42;;;;;;;19.70;18.00;;;9.30;99.90;;;;;;4852905;29;20570;-41
2023/11/03 07:21:13;;;;;;;20.00;18.17;;;9.30;99.90;;;;;;4848871;29;20675;-42
2023/11/03 07:23:40;;;;;;;21.13;19.20;;;9.30;99.90;;;;;;4848973;29;20457;-42
2023/11/03 07:26:05;;;;;;;20.93;18.93;;;9.40;99.90;;;;;;4849347;29;20816;-44
2023/11/03 07:28:31;;;;;;;21.30;19.40;;;9.40;99.90;;;;;;4850547;29;20742;-39
2023/11/03 07:30:57;;;;;;;20.97;19.07;;;9.40;99.90;;;;;;4853523;29;20747;-41
2023/11/03 07:33:23;;;;;;;21.60;19.70;;;9.50;99.90;;;;;;4852165;29;20418;-42
2023/11/03 07:35:49;;;;;;;21.67;19.57;;;9.50;99.90;;;;;;4837652;29;20433;-46
2023/11/03 07:38:15;;;;;;;21.03;19.03;;;9.50;99.90;;;;;;4854164;29;20282;-41
2023/11/03 07:40:41;;;;;;;20.37;18.70;;;9.50;99.90;;;;;;4850766;29;20181;-41
2023/11/03 07:43:06;;;;;;;22.13;20.10;;;9.50;99.90;;;;;;4851181;29;20658;-43
2023/11/03 07:45:35;;;;;;;21.80;19.80;;;9.40;99.90;;;;;;4850554;29;20441;-44
2023/11/03 07:48:01;;;;;;;21.27;19.00;;;9.40;99.90;;;;;;4851884;29;20233;-43
2023/11/03 07:50:27;;;;;;;20.90;19.00;;;9.30;99.90;;;;;;4850792;29;20428;-42
2023/11/03 07:52:52;;;;;;;22.80;20.60;;;9.30;99.90;;;;;;4850082;29;20848;-45
2023/11/03 07:55:20;;;;;;;19.67;18.00;;;9.30;99.90;;;;;;4853697;29;20459;-40
2023/11/03 07:57:47;;;;;;;20.80;18.90;;;9.30;99.90;;;;;;4847847;29;20200;-43
2023/11/03 08:00:13;;;;;;;21.17;19.13;;;9.40;99.90;;;;;;4853624;29;20478;-45
2023/11/03 08:02:38;;;;;;;21.07;19.17;;;9.50;99.90;;;;;;4851823;29;20429;-43
2023/11/03 08:05:06;;;;;;;20.30;18.30;;;9.50;99.90;;;;;;4852080;29;21010;-40
2023/11/03 08:07:33;;;;;;;21.60;19.60;;;9.60;99.90;;;;;;4851314;29;20181;-41
2023/11/03 08:09:59;;;;;;;21.43;19.30;;;9.70;99.90;;;;;;4854593;29;20428;-42
2023/11/03 08:12:25;;;;;;;20.53;18.33;;;9.80;99.90;;;;;;4851421;29;20992;-45
2023/11/03 08:14:52;;;;;;;21.23;19.23;;;9.90;99.90;;;;;;4851297;29;20177;-43
2023/11/03 08:17:19;;;;;;;20.93;19.10;;;10.00;99.90;;;;;;4857563;29;20776;-41
2023/11/03 08:19:45;;;;;;;20.40;18.63;;;10.10;99.90;;;;;;4854421;29;20429;-42
2023/11/03 08:22:11;;;;;;;19.20;17.40;;;10.20;99.90;;;;;;4859082;29;20443;-44
2023/11/03 08:24:37;;;;;;;19.33;17.43;;;10.30;99.90;;;;;;4851239;29;20453;-46
2023/11/03 08:27:03;;;;;;;17.97;16.17;;;10.30;99.90;;;;;;4851373;29;20185;-42
2023/11/03 08:29:29;;;;;;;17.40;15.90;;;10.40;99.90;;;;;;4850842;29;20745;-46
2023/11/03 08:31:55;;;;;;;18.70;16.80;;;10.40;99.90;;;;;;4855763;29;20299;-43
2023/11/03 08:34:21;;;;;;;18.80;16.97;;;10.40;99.90;;;;;;4851062;29;20692;-43
2023/11/03 08:36:46;;;;;;;19.57;17.77;;;10.40;99.90;;;;;;4851146;29;20417;-43
2023/11/03 08:39:12;;;;;;;18.80;16.97;;;10.40;99.90;;;;;;4850705;29;20189;-43
2023/11/03 08:41:39;;;;;;;19.27;17.00;;;10.50;99.90;;;;;;4854177;29;20540;-41
2023/11/03 08:44:05;;;;;;;18.27;16.40;;;10.50;99.90;;;;;;4851486;29;20443;-44
2023/11/03 08:46:31;;;;;;;18.70;17.00;;;10.60;99.90;;;;;;4850630;29;20988;-43
2023/11/03 08:48:59;;;;;;;17.73;16.00;;;10.60;99.90;;;;;;4850114;29;20430;-41
2023/11/03 08:51:26;;;;;;;16.00;14.47;;;10.70;99.90;;;;;;4851201;29;20228;-41
2023/11/03 08:53:52;;;;;;;16.90;15.40;;;10.70;99.90;;;;;;4852109;29;20983;-40
2023/11/03 08:56:20;;;;;;;16.77;15.17;;;10.60;99.90;;;;;;4850697;29;20528;-41
2023/11/03 08:58:45;;;;;;;16.73;15.00;;;10.60;99.90;;;;;;4852792;29;20444;-40
2023/11/03 09:01:11;;;;;;;16.37;15.00;;;10.50;99.90;;;;;;4849891;29;21126;-44
2023/11/03 09:03:38;;;;;;;17.53;16.03;;;10.60;99.90;;;;;;4854119;29;20566;-41
2023/11/03 09:06:05;;;;;;;15.23;13.90;;;10.60;99.90;;;;;;4858837;29;20195;-40
2023/11/03 09:08:33;;;;;;;15.57;14.37;;;10.70;99.90;;;;;;4856385;29;20421;-42
2023/11/03 09:10:59;;;;;;;15.50;14.40;;;10.80;99.90;;;;;;4841313;29;20499;-41
2023/11/03 09:13:26;;;;;;;14.57;13.27;;;10.90;99.90;;;;;;4854290;29;21272;-43
2023/11/03 09:15:52;;;;;;;15.23;13.77;;;10.90;99.90;;;;;;4852564;29;20483;-40
2023/11/03 09:18:18;;;;;;;15.13;14.13;;;11.00;99.90;;;;;;4850756;29;20520;-41
2023/11/03 09:20:44;;;;;;;15.17;13.90;;;11.10;99.90;;;;;;4851734;29;20923;-44
2023/11/03 09:23:11;;;;;;;15.10;13.80;;;11.20;99.90;;;;;;4851548;29;20581;-42
2023/11/03 09:25:37;;;;;;;14.00;12.83;;;11.10;99.90;;;;;;4855905;29;20794;-42
2023/11/03 09:28:03;;;;;;;13.90;12.90;;;11.20;99.90;;;;;;4851742;29;20445;-43
2023/11/03 09:30:29;;;;;;;14.13;12.87;;;11.30;99.90;;;;;;4851103;29;20431;-41
2023/11/03 09:32:54;;;;;;;14.13;13.13;;;11.30;99.90;;;;;;4851366;29;20484;-42
2023/11/03 09:35:21;;;;;;;13.97;12.83;;;11.30;99.90;;;;;;4850880;29;20192;-42
2023/11/03 09:37:46;;;;;;;13.83;12.67;;;11.30;91.10;;;;;;4851504;29;20194;-41
2023/11/03 09:40:16;;;;;;;13.10;12.03;;;11.30;93.50;;;;;;4851109;29;20429;-41
2023/11/03 09:42:43;;;;;;;13.57;12.73;;;11.30;99.90;;;;;;4852018;29;20192;-44
2023/11/03 09:45:15;;;;;;;12.70;11.80;;;11.40;99.90;;;;;;4850550;29;20429;-42
2023/11/03 09:47:41;;;;;;;12.30;11.60;;;11.30;59.70;;;;;;4844934;29;20451;-44
2023/11/03 09:50:10;;;;;;;13.67;12.40;;;11.30;49.80;;;;;;4845713;29;20547;-41
2023/11/03 09:52:44;;;;;;;12.40;11.50;;;11.20;1.70;;;;;;4852371;29;20473;-41
2023/11/03 09:55:17;;;;;;;12.20;11.50;;;11.20;1.00;;;;;;4850385;29;20436;-41
2023/11/03 09:57:43;;;;;;;12.40;11.67;;;11.10;1.00;;;;;;4856198;29;20436;-42
2023/11/03 10:00:16;;;;;;;11.70;11.00;;;11.10;1.00;;;;;;4850950;29;20781;-41
2023/11/03 10:02:43;;;;;;;12.30;11.40;;;11.10;22.00;;;;;;4850214;29;20441;-41
2023/11/03 10:05:14;;;;;;;12.37;11.63;;;11.10;45.50;;;;;;4851736;29;20475;-40
2023/11/03 10:07:50;;;;;;;13.13;12.33;;;11.10;63.80;;;;;;4849770;29;20909;-42
2023/11/03 10:10:16;;;;;;;12.17;11.43;;;11.10;96.90;;;;;;4850225;29;20433;-43
2023/11/03 10:12:42;;;;;;;11.87;10.97;;;11.10;95.70;;;;;;4850137;29;20501;-41
2023/11/03 10:15:09;;;;;;;12.50;11.80;;;11.10;52.60;;;;;;4849533;29;20437;-40
2023/11/03 10:17:38;;;;;;;10.40;9.80;;;11.10;37.40;;;;;;4852623;29;21384;-39
2023/11/03 10:20:07;;;;;;;11.93;11.10;;;11.00;1.00;;;;;;4849878;29;20426;-41
2023/11/03 10:22:33;;;;;;;11.80;11.10;;;11.10;1.00;;;;;;4852861;29;20452;-40
2023/11/03 10:25:00;;;;;;;12.53;11.83;;;11.10;1.00;;;;;;4850097;29;20920;-40
2023/11/03 10:27:26;;;;;;;13.70;12.30;;;11.20;18.10;;;;;;4851814;29;20189;-40
2023/11/03 10:29:52;;;;;;;12.93;12.13;;;11.10;2.60;;;;;;4851136;29;20803;-42
2023/11/03 10:32:21;;;;;;;12.40;11.60;;;11.20;17.00;;;;;;4854773;29;20492;-42
2023/11/03 10:34:48;;;;;;;12.60;11.87;;;11.20;18.10;;;;;;4850621;29;20199;-40
2023/11/03 10:37:15;;;;;;;13.40;12.50;;;11.30;11.50;;;;;;4849560;29;20425;-41
2023/11/03 10:39:40;;;;;;;13.60;12.60;;;11.30;10.00;;;;;;4857906;29;20451;-42
2023/11/03 10:42:09;;;;;;;13.10;12.03;;;11.40;2.30;;;;;;4849182;29;20469;-44
2023/11/03 10:44:35;;;;;;;12.50;11.80;;;11.40;16.80;;;;;;4850051;29;20444;-41
2023/11/03 10:47:14;;;;;;;12.20;11.50;;;11.50;22.60;;;;;;4849551;29;20437;-40
2023/11/03 10:49:43;;;;;;;12.00;11.20;;;11.40;1.00;;;;;;4851496;29;20503;-41
2023/11/03 10:52:14;;;;;;;11.47;10.80;;;11.50;1.00;;;;;;4858775;29;20475;-41
2023/11/03 10:55:03;;;;;;;12.00;11.13;;;11.50;1.00;;;;;;4852372;29;21061;-42
2023/11/03 10:57:31;;;;;;;12.27;11.17;;;11.50;1.00;;;;;;4854764;29;20428;-43
2023/11/03 11:00:26;;;;;;;11.30;10.60;;;11.40;1.00;;;;;;4850948;29;20429;-40
2023/11/03 11:03:18;;;;;;;11.30;10.50;;;11.50;1.00;;;;;;4823210;29;20840;-43
2023/11/03 11:05:47;;;;;;;12.50;11.60;;;11.40;1.00;;;;;;4849514;29;21031;-41
2023/11/03 11:08:14;;;;;;;11.43;10.70;;;11.30;1.00;;;;;;4848793;29;21092;-41
2023/11/03 11:10:42;;;;;;;12.00;11.37;;;11.20;1.00;;;;;;4849241;29;20481;-41
2023/11/03 11:13:21;;;;;;;12.20;11.50;;;11.10;1.00;;;;;;4848913;29;20939;-41
2023/11/03 11:15:56;;;;;;;11.40;10.70;;;11.20;1.00;;;;;;4849368;29;20424;-41
2023/11/03 11:18:30;;;;;;;11.70;11.10;;;11.20;1.00;;;;;;4849404;29;20439;-45
2023/11/03 11:21:03;;;;;;;11.80;11.00;;;11.30;1.00;;;;;;4848826;29;20805;-42
2023/11/03 11:23:33;;;;;;;11.47;10.77;;;11.30;1.00;;;;;;4849776;29;20424;-42
2023/11/03 11:26:01;;;;;;;11.13;10.53;;;11.20;1.00;;;;;;4850308;29;20474;-40
2023/11/03 11:28:38;;;;;;;12.10;11.40;;;11.30;1.00;;;;;;4849306;29;20490;-41
2023/11/03 11:31:22;;;;;;;11.10;10.40;;;11.30;1.00;;;;;;4852991;29;20463;-40
2023/11/03 11:34:13;;;;;;;11.60;11.00;;;11.30;1.00;;;;;;4849757;29;20574;-41
2023/11/03 11:36:39;;;;;;;11.67;10.90;;;11.20;1.00;;;;;;4851184;29;20829;-40
2023/11/03 11:39:15;;;;;;;12.03;11.43;;;11.20;1.00;;;;;;4849669;29;20421;-41
2023/11/03 11:41:55;;;;;;;12.30;11.70;;;11.10;1.00;;;;;;4849852;29;20429;-50
2023/11/03 11:44:25;;;;;;;13.27;12.47;;;11.10;1.00;;;;;;4837794;29;21118;-46
2023/11/03 11:46:59;;;;;;;13.90;12.77;;;11.10;1.00;;;;;;4850514;29;20940;-48
2023/11/03 11:49:27;;;;;;;12.50;11.70;;;11.20;1.00;;;;;;4849571;29;20464;-40
2023/11/03 11:51:55;;;;;;;12.20;11.60;;;11.20;1.00;;;;;;4850414;29;20464;-39
2023/11/03 11:54:22;;;;;;;12.30;11.50;;;11.20;1.00;;;;;;4849221;29;20445;-43
2023/11/03 11:56:49;;;;;;;13.00;12.30;;;11.30;1.00;;;;;;4849745;29;20429;-43
2023/11/03 11:59:17;;;;;;;12.10;11.20;;;11.30;1.00;;;;;;4851617;29;21238;-40
2023/11/03 12:01:45;;;;;;;12.17;11.47;;;11.50;1.00;;;;;;4852174;29;20432;-40
2023/11/03 12:04:13;;;;;;;11.80;11.10;;;11.50;1.00;;;;;;4849785;29;20433;-40
2023/11/03 12:06:40;;;;;;;12.00;11.33;;;11.60;1.00;;;;;;4849305;29;20500;-41
2023/11/03 12:09:07;;;;;;;12.50;11.63;;;11.60;1.00;;;;;;4854163;29;20439;-43
2023/11/03 12:11:33;;;;;;;11.03;10.53;;;11.50;1.00;;;;;;4848551;29;20484;-40
2023/11/03 12:13:59;;;;;;;11.33;10.63;;;11.60;1.00;;;;;;4849701;29;20437;-40
2023/11/03 12:16:26;;;;;;;12.33;11.53;;;11.60;99.90;;;;;;4854124;29;20242;-40
2023/11/03 12:18:53;;;;;;;11.97;11.37;;;11.60;99.90;;;;;;4852050;29;20485;-40
2023/11/03 12:21:23;;;;;;;11.50;10.70;;;11.70;99.90;;;;;;4852459;29;20429;-43
2023/11/03 12:23:49;;;;;;;11.70;11.10;;;11.60;99.90;;;;;;4855406;29;21008;-39
2023/11/03 12:26:14;;;;;;;11.07;10.47;;;11.60;99.90;;;;;;4852099;29;20426;-39
2023/11/03 12:28:40;;;;;;;11.10;10.50;;;11.50;99.90;;;;;;4852066;29;20952;-40
2023/11/03 12:31:06;;;;;;;11.43;10.73;;;11.50;99.90;;;;;;4853235;29;20251;-39
2023/11/03 12:33:34;;;;;;;11.33;10.63;;;11.70;1.00;;;;;;4852094;29;20173;-40